Time;durP1;ratioP1;P1;durP2;ratioP2;P2;SDS_P1;SDS_P2;PMS_P1;PMS_P2;Temp;Humidity;BMP_temperature;BMP_pressure;BME280_temperature;BME280_humidity;BME280_pressure;Samples;Min_cycle;Max_cycle;Signal;HPM_P1;HPM_P2
2022/09/25 00:02:06;;;;;;;10.30;4.07;;;;;;;10.97;100.00;101420.97;5037751;28;20610;-84
2022/09/25 00:04:31;;;;;;;11.80;4.37;;;;;;;11.01;100.00;101420.56;5038555;28;20068;-83
2022/09/25 00:06:57;;;;;;;11.40;4.50;;;;;;;10.98;100.00;101427.22;5027544;28;20196;-83
2022/09/25 00:09:22;;;;;;;13.80;4.33;;;;;;;10.90;100.00;101430.91;5038101;28;20070;-83
2022/09/25 00:11:48;;;;;;;14.07;4.67;;;;;;;10.88;100.00;101429.44;5037882;28;20602;-84
2022/09/25 00:14:13;;;;;;;15.23;4.20;;;;;;;10.86;100.00;101432.34;5037635;28;20036;-85
2022/09/25 00:16:38;;;;;;;11.47;4.10;;;;;;;10.81;100.00;101434.81;5037847;28;21449;-85
2022/09/25 00:21:51;;;;;;;15.23;4.10;;;;;;;10.77;100.00;101441.66;5037675;28;20056;-83
2022/09/25 00:24:18;;;;;;;10.23;3.60;;;;;;;10.75;100.00;101441.88;5068866;28;20109;-83
2022/09/25 00:26:43;;;;;;;13.60;3.80;;;;;;;10.75;100.00;101427.50;5037742;28;20049;-85
2022/09/25 00:29:14;;;;;;;12.47;3.63;;;;;;;10.70;100.00;101432.66;5037744;28;20162;-84
2022/09/25 00:31:40;;;;;;;8.73;3.70;;;;;;;10.68;100.00;101438.28;5037411;28;20037;-84
2022/09/25 00:34:05;;;;;;;11.93;3.80;;;;;;;10.74;100.00;101425.81;5036857;28;20491;-84
2022/09/25 00:36:32;;;;;;;11.53;3.87;;;;;;;10.69;100.00;101426.41;5037665;28;20160;-85
2022/09/25 00:38:57;;;;;;;11.27;3.60;;;;;;;10.70;100.00;101429.97;5027003;28;20170;-85
2022/09/25 00:41:25;;;;;;;13.50;3.70;;;;;;;10.58;100.00;101433.22;5036618;28;20059;-84
2022/09/25 00:43:55;;;;;;;13.37;3.80;;;;;;;10.52;100.00;101427.75;5037376;28;20567;-86
2022/09/25 00:46:28;;;;;;;12.80;3.70;;;;;;;10.61;100.00;101434.72;5036922;28;20158;-83
2022/09/25 00:49:17;;;;;;;9.48;3.20;;;;;;;10.60;100.00;101436.56;5037449;28;20036;-86
2022/09/25 00:52:05;;;;;;;12.60;3.80;;;;;;;10.59;100.00;101439.47;5036864;28;20404;-86
2022/09/25 00:54:51;;;;;;;11.63;3.47;;;;;;;10.59;100.00;101434.06;5037134;28;20041;-82
2022/09/25 00:57:20;;;;;;;9.03;3.40;;;;;;;10.55;100.00;101430.91;5036782;28;20043;-85
2022/09/25 00:59:50;;;;;;;11.93;3.90;;;;;;;10.57;100.00;101442.38;5037550;28;20078;-86
2022/09/25 01:02:25;;;;;;;12.80;3.70;;;;;;;10.55;100.00;101433.63;5036855;28;20754;-82
2022/09/25 01:04:51;;;;;;;9.17;3.60;;;;;;;10.53;100.00;101432.16;5036984;28;20115;-86
2022/09/25 01:07:17;;;;;;;11.10;3.90;;;;;;;10.53;100.00;101437.56;5037218;28;20035;-84
2022/09/25 01:09:44;;;;;;;11.20;3.87;;;;;;;10.51;100.00;101434.19;5036515;28;20032;-83
2022/09/25 01:12:09;;;;;;;13.20;3.97;;;;;;;10.50;100.00;101443.34;5037079;28;20048;-82
2022/09/25 01:14:36;;;;;;;12.00;3.33;;;;;;;10.49;100.00;101439.81;5036486;28;20048;-82
2022/09/25 01:17:06;;;;;;;12.37;4.03;;;;;;;10.47;100.00;101442.72;5037049;28;20087;-86
2022/09/25 01:19:58;;;;;;;11.57;3.60;;;;;;;10.45;100.00;101436.66;5036510;28;20128;-84
2022/09/25 01:22:44;;;;;;;9.10;3.53;;;;;;;10.41;100.00;101442.69;5036345;28;20075;-82
2022/09/25 01:25:28;;;;;;;12.10;4.20;;;;;;;10.40;100.00;101451.81;5036404;28;20033;-84
2022/09/25 01:28:08;;;;;;;10.27;3.50;;;;;;;10.39;100.00;101450.16;5036504;28;20040;-84
2022/09/25 01:30:40;;;;;;;11.77;4.03;;;;;;;10.33;100.00;101446.31;5036072;28;20029;-83
2022/09/25 01:33:12;;;;;;;10.53;4.00;;;;;;;10.29;100.00;101456.72;5036003;28;20067;-87
2022/09/25 01:36:13;;;;;;;12.20;3.70;;;;;;;10.33;100.00;101451.75;5036105;28;21742;-83
2022/09/25 01:38:56;;;;;;;7.83;4.20;;;;;;;10.28;100.00;101448.78;5036713;28;20061;-85
2022/09/25 01:41:29;;;;;;;12.97;4.50;;;;;;;10.18;100.00;101448.28;5036086;28;20133;-85
2022/09/25 01:44:32;;;;;;;11.27;4.27;;;;;;;10.19;100.00;101455.38;5036271;28;20036;-84
2022/09/25 01:47:11;;;;;;;10.63;4.23;;;;;;;10.08;100.00;101444.03;5015204;28;20620;-85
2022/09/25 01:49:43;;;;;;;14.03;4.50;;;;;;;10.07;100.00;101449.63;5035295;28;20059;-84
2022/09/25 01:52:21;;;;;;;12.67;4.40;;;;;;;10.02;100.00;101461.03;5067347;28;20135;-82
2022/09/25 01:54:50;;;;;;;12.57;4.30;;;;;;;9.96;100.00;101462.66;5035942;28;20041;-82
2022/09/25 01:57:25;;;;;;;15.10;4.73;;;;;;;9.95;100.00;101461.00;5035997;28;20033;-84
2022/09/25 02:00:08;;;;;;;12.00;4.70;;;;;;;9.93;100.00;101463.03;5035566;28;20036;-85
2022/09/25 02:02:41;;;;;;;11.10;4.37;;;;;;;9.90;100.00;101457.16;5035638;28;20055;-86
2022/09/25 02:05:13;;;;;;;10.97;4.40;;;;;;;9.84;100.00;101458.78;5035743;28;20033;-82
2022/09/25 02:07:51;;;;;;;14.47;4.77;;;;;;;9.81;100.00;101459.16;5035364;28;20071;-83
2022/09/25 02:10:23;;;;;;;12.07;4.23;;;;;;;9.79;100.00;101459.34;5035144;28;20025;-83
2022/09/25 02:12:53;;;;;;;11.50;4.67;;;;;;;9.79;100.00;101462.06;5035965;28;20041;-84
2022/09/25 02:15:24;;;;;;;12.60;4.10;;;;;;;9.74;100.00;101455.56;5035571;28;20045;-85
2022/09/25 02:21:16;;;;;;;11.35;4.55;;;;;;;9.75;100.00;101449.94;5035734;28;20408;-85
2022/09/25 02:23:56;;;;;;;15.17;4.27;;;;;;;9.63;100.00;101440.66;5035796;28;20452;-84
2022/09/25 02:26:26;;;;;;;10.20;4.37;;;;;;;9.67;100.00;101444.66;5034542;28;20365;-84
2022/09/25 02:28:52;;;;;;;13.00;4.40;;;;;;;9.60;100.00;101441.00;5035361;28;20040;-85
2022/09/25 02:31:21;;;;;;;10.93;4.03;;;;;;;9.58;100.00;101457.44;5035264;28;20060;-86
2022/09/25 02:33:46;;;;;;;10.30;3.80;;;;;;;9.54;100.00;101453.44;5036051;28;20041;-85
2022/09/25 02:36:18;;;;;;;11.13;4.07;;;;;;;9.50;100.00;101457.56;5035029;28;20041;-85
2022/09/25 02:38:43;;;;;;;10.23;4.40;;;;;;;9.44;100.00;101455.63;5036244;28;20124;-83
2022/09/25 02:41:28;;;;;;;8.97;4.67;;;;;;;9.36;100.00;101458.44;5035088;28;20051;-85
2022/09/25 02:44:09;;;;;;;13.00;4.32;;;;;;;9.22;100.00;101462.81;5035559;28;20043;-83
2022/09/25 02:47:13;;;;;;;7.43;4.43;;;;;;;9.23;100.00;101457.25;5035447;28;20175;-83
2022/09/25 02:50:04;;;;;;;10.90;4.70;;;;;;;9.18;100.00;101456.97;5036218;28;20032;-84
2022/09/25 02:52:35;;;;;;;13.33;5.10;;;;;;;9.15;100.00;101454.63;5035248;28;20076;-83
2022/09/25 02:55:24;;;;;;;12.47;4.93;;;;;;;9.16;100.00;101442.78;5035265;28;20044;-82
2022/09/25 02:57:55;;;;;;;14.03;5.27;;;;;;;9.10;100.00;101443.53;5067837;28;20029;-83
2022/09/25 03:00:22;;;;;;;11.73;4.63;;;;;;;9.07;100.00;101430.38;5039260;28;20043;-83
2022/09/25 03:02:55;;;;;;;13.33;4.93;;;;;;;9.00;100.00;101440.28;5039021;28;20046;-83
2022/09/25 03:05:22;;;;;;;9.47;4.87;;;;;;;8.98;100.00;101434.22;5071689;28;20039;-84
2022/09/25 03:10:35;;;;;;;10.70;4.78;;;;;;;8.88;100.00;101437.19;5038974;28;21626;-85
2022/09/25 03:13:22;;;;;;;12.40;5.00;;;;;;;8.88;100.00;101432.63;5039133;28;20050;-84
2022/09/25 03:15:51;;;;;;;12.43;5.20;;;;;;;8.75;100.00;101435.16;5038943;28;20037;-85
2022/09/25 03:18:17;;;;;;;9.93;5.17;;;;;;;8.65;100.00;101446.22;5039461;28;20148;-84
2022/09/25 03:20:44;;;;;;;16.27;5.70;;;;;;;8.58;100.00;101439.88;5039136;28;20171;-82
2022/09/25 03:23:10;;;;;;;14.53;5.90;;;;;;;8.56;100.00;101450.84;5039135;28;20431;-83
2022/09/25 03:25:36;;;;;;;14.00;6.30;;;;;;;8.60;100.00;101441.34;5070990;28;20041;-86
2022/09/25 03:28:02;;;;;;;15.30;6.23;;;;;;;8.59;100.00;101439.72;5029151;28;20037;-84
2022/09/25 03:31:04;;;;;;;11.53;5.80;;;;;;;8.63;100.00;101444.72;5070884;28;20032;-83
2022/09/25 03:33:37;;;;;;;14.47;6.20;;;;;;;8.57;100.00;101441.75;5038635;28;20611;-82
2022/09/25 03:36:08;;;;;;;13.93;6.53;;;;;;;8.53;100.00;101445.00;5038456;28;20143;-84
2022/09/25 03:38:34;;;;;;;14.07;6.60;;;;;;;8.49;100.00;101430.19;5038653;28;20798;-81
2022/09/25 03:41:00;;;;;;;14.60;6.60;;;;;;;8.48;100.00;101440.13;5037895;28;20033;-85
2022/09/25 03:43:26;;;;;;;11.43;6.50;;;;;;;8.47;100.00;101441.16;5038667;28;20037;-83
2022/09/25 03:45:51;;;;;;;11.33;6.80;;;;;;;8.42;100.00;101430.88;5038167;28;20508;-86
2022/09/25 03:48:17;;;;;;;13.30;6.60;;;;;;;8.41;100.00;101425.66;5068922;28;20438;-83
2022/09/25 03:50:43;;;;;;;12.70;7.00;;;;;;;8.38;100.00;101439.53;5038972;28;20029;-83
2022/09/25 03:53:09;;;;;;;12.23;7.20;;;;;;;8.34;100.00;101441.75;5037441;28;20049;-82
2022/09/25 03:55:34;;;;;;;16.10;7.63;;;;;;;8.33;100.00;101440.06;5053004;28;21556;-82
2022/09/25 03:58:00;;;;;;;12.57;6.67;;;;;;;8.37;100.00;101435.16;5038402;28;20055;-82
2022/09/25 04:00:25;;;;;;;14.30;7.80;;;;;;;8.31;100.00;101444.81;5038540;28;20500;-82
2022/09/25 04:02:51;;;;;;;15.20;7.67;;;;;;;8.37;100.00;101440.56;5037320;28;20077;-82
2022/09/25 04:05:17;;;;;;;14.83;7.57;;;;;;;8.30;100.00;101445.00;5037943;28;20073;-82
2022/09/25 04:07:43;;;;;;;16.10;7.47;;;;;;;8.30;100.00;101440.44;5069686;28;20060;-83
2022/09/25 04:10:08;;;;;;;15.70;7.80;;;;;;;8.26;100.00;101442.66;5068262;28;20489;-86
2022/09/25 04:12:34;;;;;;;15.03;7.83;;;;;;;8.27;100.00;101452.44;5037919;28;20064;-86
2022/09/25 04:14:59;;;;;;;15.03;7.93;;;;;;;8.22;100.00;101441.34;5036291;28;20098;-83
2022/09/25 04:17:24;;;;;;;16.20;7.73;;;;;;;8.23;100.00;101434.94;5037802;28;20060;-83
2022/09/25 04:19:51;;;;;;;13.27;7.13;;;;;;;8.24;100.00;101433.91;5038232;28;20147;-84
2022/09/25 04:22:16;;;;;;;15.80;7.70;;;;;;;8.23;100.00;101434.94;5036975;28;20033;-83
2022/09/25 04:24:48;;;;;;;13.57;7.90;;;;;;;8.20;100.00;101438.00;5037635;28;20044;-84
2022/09/25 04:27:19;;;;;;;13.33;7.33;;;;;;;8.17;100.00;101435.63;5037642;28;20036;-83
2022/09/25 04:29:45;;;;;;;16.27;7.80;;;;;;;8.22;100.00;101435.13;5037974;28;20179;-83
2022/09/25 04:34:55;;;;;;;15.52;8.05;;;;;;;8.21;100.00;101433.44;5037522;28;20084;-85
2022/09/25 04:37:25;;;;;;;14.13;7.80;;;;;;;8.20;100.00;101429.91;5035495;28;20040;-86
2022/09/25 04:39:51;;;;;;;16.60;7.50;;;;;;;8.19;100.00;101435.47;5068262;28;20033;-83
2022/09/25 04:42:17;;;;;;;14.20;7.93;;;;;;;8.22;100.00;101432.41;5036807;28;21433;-83
2022/09/25 04:44:42;;;;;;;15.33;7.90;;;;;;;8.16;100.00;101431.28;5069187;28;20161;-83
2022/09/25 04:47:07;;;;;;;15.30;9.00;;;;;;;8.13;100.00;101428.91;5068545;28;20045;-83
2022/09/25 04:49:33;;;;;;;14.60;8.70;;;;;;;8.15;100.00;101436.88;5035896;28;20048;-83
2022/09/25 04:51:58;;;;;;;18.97;8.37;;;;;;;8.13;100.00;101436.19;5035471;28;20787;-86
2022/09/25 04:54:23;;;;;;;12.10;7.93;;;;;;;8.11;100.00;101436.38;5037668;28;20497;-83
2022/09/25 04:56:49;;;;;;;14.97;8.20;;;;;;;8.11;100.00;101444.47;5037099;28;20754;-84
2022/09/25 04:59:15;;;;;;;15.10;7.33;;;;;;;8.03;100.00;101434.56;5036587;28;20043;-83
2022/09/25 05:01:41;;;;;;;11.53;7.90;;;;;;;8.00;100.00;101439.50;5036813;28;20045;-84
2022/09/25 05:04:06;;;;;;;14.80;8.00;;;;;;;8.06;100.00;101426.09;5036865;28;20042;-84
2022/09/25 05:06:31;;;;;;;13.00;8.10;;;;;;;8.08;100.00;101428.66;5069445;28;20116;-83
2022/09/25 05:08:57;;;;;;;16.70;8.97;;;;;;;8.12;100.00;101427.28;5069278;28;22125;-85
2022/09/25 05:11:22;;;;;;;16.57;9.30;;;;;;;8.08;100.00;101424.09;5036908;28;20154;-83
2022/09/25 05:13:51;;;;;;;17.13;9.33;;;;;;;8.09;100.00;101422.22;5068443;28;20705;-84
2022/09/25 05:16:17;;;;;;;14.03;8.13;;;;;;;7.99;100.00;101416.25;5036680;28;20060;-84
2022/09/25 05:18:43;;;;;;;13.20;8.57;;;;;;;7.96;100.00;101420.13;5036464;28;20044;-84
2022/09/25 05:21:08;;;;;;;16.73;9.10;;;;;;;7.92;100.00;101421.50;5035489;28;20396;-84
2022/09/25 05:23:34;;;;;;;19.97;10.03;;;;;;;7.96;100.00;101416.59;5036141;28;20032;-84
2022/09/25 05:26:02;;;;;;;16.40;9.73;;;;;;;7.93;100.00;101415.94;5051190;28;20033;-86
2022/09/25 05:28:31;;;;;;;14.80;8.93;;;;;;;7.82;100.00;101420.91;5036244;28;20598;-83
2022/09/25 05:31:03;;;;;;;17.20;9.57;;;;;;;7.92;100.00;101418.81;5037013;28;20067;-83
2022/09/25 05:33:33;;;;;;;16.57;10.07;;;;;;;7.83;100.00;101420.72;5036022;28;20107;-84
2022/09/25 05:36:06;;;;;;;19.33;10.23;;;;;;;7.89;100.00;101421.88;5034663;28;20055;-85
2022/09/25 05:38:33;;;;;;;18.50;10.70;;;;;;;7.91;100.00;101417.13;5036073;28;20032;-84
2022/09/25 05:41:06;;;;;;;18.10;11.47;;;;;;;7.93;100.00;101424.03;5034601;28;20141;-86
2022/09/25 05:43:33;;;;;;;19.00;11.20;;;;;;;7.98;100.00;101430.75;5036401;28;20032;-86
2022/09/25 05:45:59;;;;;;;20.40;12.03;;;;;;;7.97;100.00;101429.06;5067944;28;20498;-86
2022/09/25 05:48:25;;;;;;;20.43;12.00;;;;;;;8.00;100.00;101428.72;5035352;28;20040;-85
2022/09/25 05:50:51;;;;;;;20.60;11.83;;;;;;;7.91;100.00;101423.38;5036195;28;20473;-84
2022/09/25 05:53:17;;;;;;;19.47;12.17;;;;;;;7.97;100.00;101426.34;5033852;28;20212;-85
2022/09/25 05:55:51;;;;;;;16.70;11.50;;;;;;;7.97;100.00;101429.91;5035894;28;20041;-85
2022/09/25 05:58:16;;;;;;;21.35;11.35;;;;;;;8.00;100.00;101426.03;5050178;28;20123;-84
2022/09/25 06:00:42;;;;;;;17.40;11.30;;;;;;;8.01;100.00;101424.97;5035952;28;20048;-84
2022/09/25 06:03:07;;;;;;;20.03;11.80;;;;;;;8.03;100.00;101436.44;5035435;28;20065;-86
2022/09/25 06:05:33;;;;;;;17.57;10.93;;;;;;;8.01;100.00;101425.84;5034320;28;20033;-85
2022/09/25 06:07:58;;;;;;;19.07;11.57;;;;;;;8.06;100.00;101431.50;5035374;28;20041;-85
2022/09/25 06:10:25;;;;;;;19.27;12.00;;;;;;;8.03;100.00;101421.09;5033685;28;20029;-85
2022/09/25 06:12:53;;;;;;;20.33;11.77;;;;;;;8.20;100.00;101426.34;5035805;28;20644;-84
2022/09/25 06:15:19;;;;;;;18.77;12.00;;;;;;;8.22;100.00;101435.94;5066448;28;21452;-84
2022/09/25 06:17:45;;;;;;;19.37;12.30;;;;;;;8.20;100.00;101429.91;5035499;28;20105;-85
2022/09/25 06:20:10;;;;;;;20.17;11.93;;;;;;;8.11;100.00;101425.59;5035254;28;20041;-85
2022/09/25 06:22:35;;;;;;;16.97;11.37;;;;;;;8.23;100.00;101434.09;5034889;28;20769;-85
2022/09/25 06:25:01;;;;;;;19.03;10.70;;;;;;;8.24;100.00;101430.34;5035402;28;20040;-85
2022/09/25 06:27:26;;;;;;;18.07;11.00;;;;;;;8.33;100.00;101439.25;5035149;28;20041;-85
2022/09/25 06:29:51;;;;;;;19.27;11.17;;;;;;;8.27;100.00;101438.94;5067726;28;20045;-84
2022/09/25 06:32:17;;;;;;;16.47;10.53;;;;;;;8.28;100.00;101434.38;5035636;28;20036;-86
2022/09/25 06:34:42;;;;;;;17.40;10.87;;;;;;;8.39;100.00;101443.88;5039823;28;20566;-86
2022/09/25 06:37:07;;;;;;;17.10;10.83;;;;;;;8.52;100.00;101438.75;5039200;28;20190;-85
2022/09/25 06:39:33;;;;;;;16.33;11.33;;;;;;;8.55;100.00;101438.38;5071448;28;20449;-85
2022/09/25 06:41:58;;;;;;;17.20;11.07;;;;;;;8.61;100.00;101437.66;5038331;28;20091;-86
2022/09/25 06:44:24;;;;;;;19.57;10.60;;;;;;;8.71;100.00;101437.38;5039233;28;20489;-84
2022/09/25 06:46:53;;;;;;;19.20;10.60;;;;;;;8.80;100.00;101435.44;5039640;28;20087;-85
2022/09/25 06:49:21;;;;;;;15.00;10.10;;;;;;;8.91;100.00;101434.97;5039483;28;20033;-84
2022/09/25 06:51:46;;;;;;;17.40;10.17;;;;;;;9.03;100.00;101439.88;5035696;28;20053;-84
2022/09/25 06:54:12;;;;;;;17.10;9.60;;;;;;;9.13;100.00;101440.47;5038933;28;20048;-85
2022/09/25 06:56:38;;;;;;;19.33;9.07;;;;;;;9.26;100.00;101445.19;5039485;28;20037;-85
2022/09/25 06:59:03;;;;;;;15.77;8.80;;;;;;;9.39;100.00;101442.66;5039436;28;20049;-85
2022/09/25 07:01:29;;;;;;;17.60;9.07;;;;;;;9.46;100.00;101445.44;5071362;28;20547;-84
2022/09/25 07:03:54;;;;;;;13.43;8.23;;;;;;;9.62;100.00;101444.38;5038124;28;20063;-85
2022/09/25 07:06:22;;;;;;;13.73;8.10;;;;;;;9.73;100.00;101445.75;5039197;28;20124;-84
2022/09/25 07:08:48;;;;;;;13.63;8.20;;;;;;;9.82;100.00;101455.44;5038679;28;20035;-85
2022/09/25 07:11:21;;;;;;;16.17;7.60;;;;;;;10.00;100.00;101460.41;5038767;28;20124;-85
2022/09/25 07:13:53;;;;;;;14.33;7.23;;;;;;;10.17;100.00;101452.00;5038565;28;20509;-84
2022/09/25 07:16:21;;;;;;;13.33;7.07;;;;;;;10.29;100.00;101462.16;5037431;28;20047;-84
2022/09/25 07:18:47;;;;;;;13.90;7.20;;;;;;;10.45;100.00;101452.09;5037016;28;20025;-86
2022/09/25 07:21:14;;;;;;;10.23;6.57;;;;;;;10.51;100.00;101453.16;5038985;28;20033;-84
2022/09/25 07:23:41;;;;;;;12.10;6.47;;;;;;;10.56;100.00;101456.97;5039274;28;20036;-86
2022/09/25 07:26:06;;;;;;;10.93;6.20;;;;;;;10.74;100.00;101463.75;5034048;28;20047;-85
2022/09/25 07:28:32;;;;;;;10.73;5.97;;;;;;;10.88;100.00;101459.25;5038353;28;20029;-85
2022/09/25 07:30:57;;;;;;;11.50;5.97;;;;;;;11.08;100.00;101459.38;5038327;28;20032;-85
2022/09/25 07:33:23;;;;;;;10.67;5.47;;;;;;;11.13;100.00;101456.91;5052699;28;20045;-84
2022/09/25 07:35:50;;;;;;;9.50;5.23;;;;;;;11.31;100.00;101469.94;5038489;28;20118;-85
2022/09/25 07:38:15;;;;;;;8.97;4.70;;;;;;;11.46;100.00;101461.66;5037847;28;20504;-84
2022/09/25 07:40:41;;;;;;;10.40;5.00;;;;;;;11.53;100.00;101458.97;5053575;28;20040;-84
2022/09/25 07:43:06;;;;;;;9.37;4.67;;;;;;;11.75;100.00;101468.66;5038239;28;20487;-84
2022/09/25 07:45:32;;;;;;;8.47;4.30;;;;;;;11.84;100.00;101466.56;5037439;28;20041;-84
2022/09/25 07:47:59;;;;;;;6.97;4.70;;;;;;;12.06;100.00;101456.44;5037373;28;20649;-84
2022/09/25 07:50:25;;;;;;;8.63;4.53;;;;;;;12.14;100.00;101452.66;5038192;28;20538;-83
2022/09/25 07:52:52;;;;;;;6.33;4.13;;;;;;;12.25;100.00;101451.22;5037369;28;20057;-86
2022/09/25 07:55:17;;;;;;;7.93;4.17;;;;;;;12.46;100.00;101461.06;5035513;28;20037;-85
2022/09/25 07:57:43;;;;;;;9.23;4.50;;;;;;;12.70;100.00;101466.88;5038451;28;20436;-84
2022/09/25 08:00:09;;;;;;;9.17;4.00;;;;;;;12.79;100.00;101465.63;5037709;28;20097;-85
2022/09/25 08:02:34;;;;;;;6.70;3.67;;;;;;;12.97;100.00;101462.25;5036242;28;20151;-84
2022/09/25 08:05:00;;;;;;;7.37;3.77;;;;;;;12.94;100.00;101465.38;5037726;28;22100;-87
2022/09/25 08:07:27;;;;;;;6.90;3.70;;;;;;;13.09;100.00;101459.72;5037555;28;20044;-85
2022/09/25 08:09:53;;;;;;;6.53;3.47;;;;;;;13.53;100.00;101463.56;5036381;28;20383;-85
2022/09/25 08:12:19;;;;;;;8.90;3.20;;;;;;;13.57;97.55;101470.25;5037879;28;20069;-83
2022/09/25 08:14:44;;;;;;;5.57;3.20;;;;;;;13.82;96.60;101458.59;5037295;28;20127;-83
2022/09/25 08:17:10;;;;;;;8.23;3.37;;;;;;;14.10;93.33;101460.09;5037467;28;21446;-84
2022/09/25 08:19:36;;;;;;;6.67;3.10;;;;;;;14.34;93.78;101462.00;5037436;28;20634;-84
2022/09/25 08:22:01;;;;;;;8.93;3.20;;;;;;;14.43;92.38;101453.53;5036990;28;20390;-82
2022/09/25 08:24:26;;;;;;;9.20;2.90;;;;;;;14.42;88.17;101460.88;5035565;28;20037;-83
2022/09/25 08:26:52;;;;;;;7.37;2.80;;;;;;;14.65;88.23;101454.84;5036330;28;20230;-83
2022/09/25 08:29:17;;;;;;;8.87;2.63;;;;;;;14.85;87.64;101451.09;5036467;28;20133;-85
2022/09/25 08:31:43;;;;;;;7.07;2.60;;;;;;;15.16;87.02;101452.88;5037362;28;20299;-83
2022/09/25 08:34:09;;;;;;;6.30;2.53;;;;;;;15.35;82.73;101456.41;5036362;28;20489;-83
2022/09/25 08:36:34;;;;;;;7.97;2.63;;;;;;;15.75;83.47;101456.94;5038011;28;21894;-85
2022/09/25 08:39:00;;;;;;;5.97;2.50;;;;;;;15.66;81.63;101451.78;5036694;28;20037;-83
2022/09/25 08:41:45;;;;;;;5.68;2.40;;;;;;;15.78;85.94;101459.22;5036859;28;20576;-82
2022/09/25 08:44:23;;;;;;;4.32;2.45;;;;;;;15.98;83.64;101464.41;5036567;28;20029;-84
2022/09/25 08:49:40;;;;;;;4.47;2.50;;;;;;;16.10;80.34;101456.25;5036978;28;20060;-83
2022/09/25 08:52:10;;;;;;;8.93;2.22;;;;;;;15.96;79.06;101467.38;5037273;28;20473;-84
2022/09/25 08:54:35;;;;;;;7.43;2.53;;;;;;;16.69;80.31;101465.38;5036342;28;20461;-84
2022/09/25 08:57:15;;;;;;;5.38;2.22;;;;;;;17.02;81.29;101458.47;5035983;28;20128;-84
2022/09/25 08:59:43;;;;;;;4.30;2.10;;;;;;;16.90;76.69;101465.88;5036438;28;20116;-85
2022/09/25 09:02:16;;;;;;;8.20;2.13;;;;;;;17.19;77.04;101465.97;5035745;28;20039;-87
2022/09/25 09:04:50;;;;;;;7.40;2.17;;;;;;;17.01;76.13;101461.44;5036790;28;20315;-82
2022/09/25 09:07:21;;;;;;;6.05;1.80;;;;;;;16.97;72.75;101460.28;5026816;28;20041;-85
2022/09/25 09:10:22;;;;;;;7.35;1.85;;;;;;;17.11;78.11;101461.69;5036679;28;20049;-84
2022/09/25 09:13:11;;;;;;;6.60;1.90;;;;;;;17.01;73.17;101458.72;5010499;28;20047;-84
2022/09/25 09:15:43;;;;;;;4.85;1.85;;;;;;;16.89;75.31;101453.28;5035935;28;20088;-83
2022/09/25 09:18:24;;;;;;;7.72;1.63;;;;;;;16.84;74.43;101462.16;5036115;28;20046;-83
2022/09/25 09:20:58;;;;;;;9.23;2.53;;;;;;;16.58;73.02;101451.69;5036740;28;20525;-82
2022/09/25 09:23:31;;;;;;;5.35;1.80;;;;;;;16.71;73.60;101455.03;5034556;28;20091;-83
2022/09/25 09:26:49;;;;;;;5.97;1.50;;;;;;;16.92;74.05;101449.19;5068541;28;20068;-84
2022/09/25 09:29:56;;;;;;;6.25;1.75;;;;;;;16.98;75.68;101451.00;4954219;28;20038;-83
2022/09/25 09:32:36;;;;;;;7.93;1.80;;;;;;;17.04;70.64;101453.59;5031861;28;20056;-83
2022/09/25 09:35:39;;;;;;;5.97;1.63;;;;;;;17.20;72.97;101451.19;5035602;28;20043;-84
2022/09/25 09:38:31;;;;;;;3.60;1.15;;;;;;;16.99;67.43;101450.75;5035783;28;20036;-85
2022/09/25 09:41:12;;;;;;;4.93;1.33;;;;;;;17.23;69.58;101445.25;5035743;28;20041;-83
2022/09/25 09:44:05;;;;;;;6.93;1.50;;;;;;;17.63;69.59;101441.66;5036073;28;20037;-80
2022/09/25 09:46:47;;;;;;;4.47;1.30;;;;;;;17.38;62.91;101440.06;5026090;28;20130;-82
2022/09/25 09:49:24;;;;;;;5.32;1.60;;;;;;;17.87;67.27;101441.56;5035934;28;20033;-84
2022/09/25 09:51:55;;;;;;;3.70;1.40;;;;;;;17.74;62.77;101450.06;5035571;28;20163;-83
2022/09/25 09:54:26;;;;;;;4.82;1.45;;;;;;;17.68;65.26;101440.94;5035283;28;20037;-84
2022/09/25 09:56:54;;;;;;;6.10;1.75;;;;;;;18.03;65.56;101443.53;5036195;28;20123;-85
2022/09/25 09:59:35;;;;;;;3.22;0.88;;;;;;;17.81;62.37;101431.56;5035225;28;20040;-83
2022/09/25 10:02:25;;;;;;;4.07;1.15;;;;;;;17.63;60.39;101433.44;5036136;28;20036;-83
2022/09/25 10:04:51;;;;;;;6.68;1.35;;;;;;;17.49;63.02;101434.81;5035805;28;20119;-85
2022/09/25 10:07:21;;;;;;;6.70;1.33;;;;;;;18.13;64.29;101433.78;5034958;28;20591;-87
2022/09/25 10:09:48;;;;;;;6.13;1.35;;;;;;;17.81;59.39;101431.56;5035495;28;20059;-84
2022/09/25 10:12:24;;;;;;;4.70;1.38;;;;;;;17.76;62.64;101434.19;5035604;28;20064;-84
2022/09/25 10:14:50;;;;;;;3.47;1.23;;;;;;;17.22;59.65;101429.88;5035532;28;20595;-84
2022/09/25 10:17:18;;;;;;;4.60;1.48;;;;;;;17.14;62.38;101428.34;5035709;28;20036;-82
2022/09/25 10:19:52;;;;;;;5.22;1.30;;;;;;;17.40;62.27;101423.38;5036104;28;20037;-84
2022/09/25 10:22:22;;;;;;;8.85;1.55;;;;;;;17.36;61.79;101424.97;5035453;28;20056;-85
2022/09/25 10:25:02;;;;;;;5.30;1.60;;;;;;;17.60;61.89;101422.97;5035673;28;20073;-84
2022/09/25 10:27:40;;;;;;;6.38;1.60;;;;;;;17.98;63.94;101429.72;5036013;28;20032;-85
2022/09/25 10:30:08;;;;;;;5.00;1.52;;;;;;;18.08;60.27;101409.03;5035793;28;20087;-87
2022/09/25 10:32:54;;;;;;;10.98;1.60;;;;;;;18.01;60.59;101426.47;5035168;28;20191;-83
2022/09/25 10:35:23;;;;;;;4.13;1.00;;;;;;;17.60;57.76;101422.13;5035091;28;20311;-85
2022/09/25 10:37:52;;;;;;;6.28;1.45;;;;;;;17.52;61.41;101423.34;5035858;28;20473;-85
2022/09/25 10:40:34;;;;;;;5.05;1.23;;;;;;;17.76;64.57;101428.72;5034164;28;20111;-86
2022/09/25 10:43:22;;;;;;;5.50;1.30;;;;;;;17.88;62.28;101416.63;5035260;28;20044;-85
2022/09/25 10:45:54;;;;;;;5.50;1.30;;;;;;;17.70;59.93;101425.88;5035144;28;20114;-86
2022/09/25 10:51:21;;;;;;;4.75;1.15;;;;;;;17.84;60.94;101425.56;5035055;28;20110;-81
2022/09/25 10:53:52;;;;;;;4.05;1.45;;;;;;;17.94;59.63;101423.06;5035023;28;20103;-81
2022/09/25 10:56:37;;;;;;;3.63;1.15;;;;;;;17.80;58.17;101429.88;5035094;28;20037;-85
2022/09/25 10:59:13;;;;;;;5.72;1.20;;;;;;;17.69;56.80;101424.25;5034930;28;20606;-81
2022/09/25 11:01:42;;;;;;;4.75;1.23;;;;;;;17.58;59.90;101422.34;5035392;28;20040;-85
2022/09/25 11:04:28;;;;;;;4.63;1.45;;;;;;;18.01;60.87;101409.19;5035063;28;20037;-86
2022/09/25 11:07:06;;;;;;;2.50;0.85;;;;;;;17.99;58.20;101414.94;5035497;28;20029;-88
2022/09/25 11:09:35;;;;;;;3.90;0.88;;;;;;;17.94;53.37;101409.34;5034995;28;20033;-85
2022/09/25 11:12:26;;;;;;;4.22;1.13;;;;;;;18.21;58.69;101405.97;5034908;28;20384;-84
2022/09/25 11:15:05;;;;;;;3.08;0.90;;;;;;;17.82;56.07;101412.13;5034020;28;20048;-89
2022/09/25 11:17:38;;;;;;;4.38;1.17;;;;;;;18.22;56.32;101405.72;5033635;28;20036;-85
2022/09/25 11:20:12;;;;;;;6.23;1.53;;;;;;;18.11;58.38;101403.88;5037264;28;20075;-86
2022/09/25 11:22:40;;;;;;;4.90;1.08;;;;;;;17.83;56.33;101415.72;5039043;28;20315;-83
2022/09/25 11:25:23;;;;;;;2.28;0.90;;;;;;;17.64;58.03;101415.91;5038491;28;20037;-82
2022/09/25 11:28:07;;;;;;;3.65;0.90;;;;;;;17.37;53.76;101411.00;5038511;28;20097;-82
2022/09/25 11:31:01;;;;;;;3.42;0.80;;;;;;;17.10;56.13;101415.41;5038595;28;20314;-81
2022/09/25 11:33:34;;;;;;;5.32;1.15;;;;;;;16.73;56.77;101407.44;5070772;28;20087;-84
2022/09/25 11:36:04;;;;;;;3.78;1.00;;;;;;;17.21;60.50;101406.31;5027553;28;20397;-82
2022/09/25 11:41:49;;;;;;;1.90;0.88;;;;;;;17.01;58.86;101396.59;5038372;28;20043;-83
2022/09/25 11:44:53;;;;;;;2.03;0.95;;;;;;;17.04;61.31;101389.81;5038640;28;20483;-83
2022/09/25 11:47:39;;;;;;;3.90;0.85;;;;;;;17.10;63.30;101390.75;5038854;28;20033;-84
2022/09/25 11:50:14;;;;;;;1.48;0.70;;;;;;;17.23;59.42;101386.88;5038413;28;20036;-86
2022/09/25 11:53:23;;;;;;;3.83;1.10;;;;;;;17.12;58.47;101391.31;5038011;28;20044;-83
2022/09/25 11:56:16;;;;;;;4.10;1.00;;;;;;;16.90;57.59;101393.88;5038211;28;20171;-82
2022/09/25 11:59:04;;;;;;;5.32;1.15;;;;;;;16.57;60.02;101384.38;5037975;28;20078;-84